createdAt,value
2018-07-09T00:01:59.847Z,98884.71
2018-07-09T00:04:30.913Z,98884.73
2018-07-09T00:07:02.866Z,98883.62
2018-07-09T00:09:33.813Z,98888.77
2018-07-09T00:12:04.846Z,98888.94
2018-07-09T00:14:36.151Z,98884.48
2018-07-09T00:17:07.280Z,98874.56
2018-07-09T00:19:38.441Z,98882.02
2018-07-09T00:22:09.529Z,98884.12
2018-07-09T00:24:41.821Z,98878.52
2018-07-09T00:27:12.837Z,98885.06
2018-07-09T00:32:30.208Z,98868.58
2018-07-09T00:35:02.584Z,98869.03
2018-07-09T00:37:33.694Z,98864.16
2018-07-09T00:40:05.074Z,98865.77
2018-07-09T00:42:36.599Z,98863.42
2018-07-09T00:45:07.346Z,98859.45
2018-07-09T00:47:37.874Z,98865.71
2018-07-09T00:50:09.123Z,98856.88
2018-07-09T00:52:41.591Z,98862.52
2018-07-09T00:55:12.936Z,98861.03
2018-07-09T00:57:43.810Z,98853.55
2018-07-09T01:00:14.575Z,98849.91
2018-07-09T01:02:45.499Z,98848.23
2018-07-09T01:05:15.962Z,98855.69
2018-07-09T01:07:46.847Z,98851.04
2018-07-09T01:10:20.248Z,98849.01
2018-07-09T01:12:51.466Z,98855.81
2018-07-09T01:15:22.460Z,98852.59
2018-07-09T01:17:53.888Z,98851.13
2018-07-09T01:20:24.812Z,98850.59
2018-07-09T01:22:56.105Z,98848.80
2018-07-09T01:25:27.222Z,98846.19
2018-07-09T01:27:59.334Z,98843.85
2018-07-09T01:30:36.698Z,98848.45
2018-07-09T01:33:07.669Z,98852.06
2018-07-09T01:35:39.137Z,98850.76
2018-07-09T01:38:10.166Z,98849.42
2018-07-09T01:40:40.631Z,98851.75
2018-07-09T01:43:13.235Z,98846.14
2018-07-09T01:45:44.133Z,98842.19
2018-07-09T01:48:15.111Z,98842.50
2018-07-09T01:50:45.901Z,98847.91
2018-07-09T01:53:16.992Z,98846.65
2018-07-09T01:55:47.958Z,98845.69
2018-07-09T01:58:18.753Z,98844.45
2018-07-09T02:00:49.348Z,98848.63
2018-07-09T02:03:20.108Z,98843.95
2018-07-09T02:05:51.003Z,98854.95
2018-07-09T02:08:22.069Z,98854.45
2018-07-09T02:10:53.880Z,98857.33
2018-07-09T02:13:24.766Z,98860.72
2018-07-09T02:15:55.531Z,98852.75
2018-07-09T02:18:27.440Z,98849.75
2018-07-09T02:20:58.046Z,98851.27
2018-07-09T02:23:28.754Z,98845.61
2018-07-09T02:26:00.082Z,98839.89
2018-07-09T02:28:32.501Z,98845.02
2018-07-09T02:31:03.624Z,98839.00
2018-07-09T02:33:34.568Z,98847.77
2018-07-09T02:36:05.387Z,98855.60
2018-07-09T02:38:36.307Z,98850.89
2018-07-09T02:41:07.284Z,98853.16
2018-07-09T02:43:38.276Z,98850.03
2018-07-09T02:46:10.675Z,98852.67
2018-07-09T02:48:41.585Z,98843.59
2018-07-09T02:51:12.179Z,98844.79
2018-07-09T02:53:42.968Z,98845.54
2018-07-09T02:56:15.029Z,98842.98
2018-07-09T02:58:45.958Z,98847.51
2018-07-09T03:01:17.193Z,98847.30
2018-07-09T03:03:48.958Z,98853.66
2018-07-09T03:06:20.483Z,98859.88
2018-07-09T03:08:51.312Z,98862.81
2018-07-09T03:11:21.689Z,98864.45
2018-07-09T03:13:52.806Z,98867.39
2018-07-09T03:16:23.650Z,98861.69
2018-07-09T03:18:54.764Z,98870.06
2018-07-09T03:21:26.735Z,98869.88
2018-07-09T03:23:58.091Z,98866.97
2018-07-09T03:26:28.961Z,98868.54
2018-07-09T03:29:00.284Z,98863.34
2018-07-09T03:31:31.179Z,98863.83
2018-07-09T03:34:02.118Z,98867.34
2018-07-09T03:36:32.460Z,98879.40
2018-07-09T03:39:03.581Z,98879.11
2018-07-09T03:41:35.689Z,98878.53
2018-07-09T03:44:06.961Z,98877.94
2018-07-09T03:46:37.947Z,98879.00
2018-07-09T03:49:08.743Z,98872.42
2018-07-09T03:51:39.652Z,98877.02
2018-07-09T03:54:10.580Z,98869.27
2018-07-09T03:56:42.040Z,98872.80
2018-07-09T03:59:13.711Z,98877.63
2018-07-09T04:01:44.565Z,98878.62
2018-07-09T04:04:15.527Z,98874.19
2018-07-09T04:06:46.327Z,98878.83
2018-07-09T04:09:17.965Z,98880.25
2018-07-09T04:11:49.359Z,98877.11
2018-07-09T04:14:20.091Z,98882.27
2018-07-09T04:16:52.152Z,98882.88
2018-07-09T04:19:22.996Z,98889.38
2018-07-09T04:21:53.841Z,98889.05
2018-07-09T04:24:25.051Z,98884.89
2018-07-09T04:26:56.332Z,98887.63
2018-07-09T04:29:27.181Z,98887.41
2018-07-09T04:31:57.705Z,98893.18
2018-07-09T04:34:29.965Z,98888.23
2018-07-09T04:37:01.714Z,98885.58
2018-07-09T04:39:32.738Z,98888.23
2018-07-09T04:42:04.962Z,98882.16
2018-07-09T04:44:36.028Z,98892.64
2018-07-09T04:47:06.926Z,98888.45
2018-07-09T04:49:38.087Z,98891.15
2018-07-09T04:52:08.919Z,98891.03
2018-07-09T04:54:40.479Z,98889.67
2018-07-09T04:57:12.433Z,98896.06
2018-07-09T04:59:43.738Z,98890.96
2018-07-09T05:02:14.823Z,98889.84
2018-07-09T05:04:47.141Z,98886.73
2018-07-09T05:07:18.088Z,98884.42
2018-07-09T05:09:49.191Z,98878.98
2018-07-09T05:12:20.362Z,98877.20
2018-07-09T05:14:51.646Z,98873.41
2018-07-09T05:17:22.637Z,98871.92
2018-07-09T05:19:53.683Z,98867.31
2018-07-09T05:22:25.641Z,98875.97
2018-07-09T05:24:56.641Z,98869.67
2018-07-09T05:27:27.562Z,98871.95
2018-07-09T05:29:58.623Z,98872.56
2018-07-09T05:32:29.752Z,98864.90
2018-07-09T05:35:00.967Z,98873.91
2018-07-09T05:37:32.480Z,98870.21
2018-07-09T05:40:04.617Z,98872.06
2018-07-09T05:42:35.795Z,98869.50
2018-07-09T05:45:07.767Z,98867.19
2018-07-09T05:47:38.811Z,98869.91
2018-07-09T05:50:10.363Z,98875.37
2018-07-09T05:52:41.636Z,98874.09
2018-07-09T05:55:13.234Z,98882.27
2018-07-09T05:57:45.434Z,98881.94
2018-07-09T06:00:17.260Z,98880.13
2018-07-09T06:02:48.724Z,98883.77
2018-07-09T06:05:19.756Z,98893.20
2018-07-09T06:07:51.952Z,98891.52
2018-07-09T06:10:23.755Z,98887.80
2018-07-09T06:12:56.922Z,98884.06
2018-07-09T06:15:29.057Z,98884.98
2018-07-09T06:18:00.577Z,98880.00
2018-07-09T06:20:32.614Z,98875.59
2018-07-09T06:23:05.568Z,98871.43
2018-07-09T06:25:37.150Z,98883.95
2018-07-09T06:28:09.400Z,98881.54
2018-07-09T06:30:40.521Z,98882.69
2018-07-09T06:33:11.767Z,98881.48
2018-07-09T06:35:42.917Z,98885.84
2018-07-09T06:38:13.842Z,98890.04
2018-07-09T06:40:45.055Z,98888.47
2018-07-09T06:43:16.443Z,98885.36
2018-07-09T06:45:48.525Z,98879.20
2018-07-09T06:48:19.588Z,98885.61
2018-07-09T06:50:50.792Z,98886.84
2018-07-09T06:53:21.955Z,98887.67
2018-07-09T06:55:53.007Z,98883.61
2018-07-09T06:58:24.028Z,98888.39
2018-07-09T07:00:55.303Z,98883.45
2018-07-09T07:03:27.685Z,98880.97
2018-07-09T07:06:00.229Z,98879.90
2018-07-09T07:08:32.709Z,98884.72
2018-07-09T07:11:04.228Z,98880.42
2018-07-09T07:13:35.248Z,98882.98
2018-07-09T07:16:06.937Z,98883.77
2018-07-09T07:18:39.012Z,98879.78
2018-07-09T07:21:10.951Z,98872.42
2018-07-09T07:23:42.055Z,98878.95
2018-07-09T07:26:14.052Z,98880.03
2018-07-09T07:28:45.585Z,98881.47
2018-07-09T07:31:17.719Z,98880.59
2018-07-09T07:33:50.046Z,98878.63
2018-07-09T07:36:22.375Z,98881.92
2018-07-09T07:38:56.111Z,98886.89
2018-07-09T07:41:28.105Z,98880.14
2018-07-09T07:44:00.525Z,98878.31
2018-07-09T07:46:32.265Z,98877.30
2018-07-09T07:49:03.608Z,98874.05
2018-07-09T07:51:36.486Z,98872.94
2018-07-09T07:54:08.286Z,98876.88
2018-07-09T07:56:40.310Z,98878.31
2018-07-09T07:59:14.091Z,98875.84
2018-07-09T08:01:48.008Z,98867.78
2018-07-09T08:04:20.281Z,98865.45
2018-07-09T08:06:52.188Z,98865.25
2018-07-09T08:09:25.472Z,98861.38
2018-07-09T08:12:59.662Z,98855.08
2018-07-09T08:14:29.524Z,98865.82
2018-07-09T08:17:00.924Z,98861.11
2018-07-09T08:19:32.511Z,98860.29
2018-07-09T08:22:04.975Z,98851.77
2018-07-09T08:24:37.018Z,98851.94
2018-07-09T08:27:09.504Z,98853.02
2018-07-09T08:29:40.893Z,98851.03
2018-07-09T08:32:13.169Z,98853.39
2018-07-09T08:34:45.663Z,98852.70
2018-07-09T08:37:18.148Z,98849.87
2018-07-09T08:39:49.958Z,98861.89
2018-07-09T08:42:22.600Z,98856.34
2018-07-09T08:44:54.055Z,98851.65
2018-07-09T08:47:26.709Z,98842.28
2018-07-09T08:49:58.764Z,98850.02
2018-07-09T08:52:30.826Z,98854.63
2018-07-09T08:55:02.529Z,98857.95
2018-07-09T08:57:35.015Z,98855.73
2018-07-09T09:00:06.913Z,98849.47
2018-07-09T09:02:38.472Z,98851.50
2018-07-09T09:05:10.268Z,98850.47
2018-07-09T09:07:44.739Z,98853.02
2018-07-09T09:10:17.460Z,98849.22
2018-07-09T09:12:49.028Z,98843.21
2018-07-09T09:15:21.253Z,98844.60
2018-07-09T09:17:52.611Z,98852.20
2018-07-09T09:20:23.791Z,98846.70
2018-07-09T09:22:56.089Z,98846.48
2018-07-09T09:25:28.465Z,98845.55
2018-07-09T09:27:59.835Z,98840.13
2018-07-09T09:30:32.117Z,98838.62
2018-07-09T09:33:04.973Z,98844.87
2018-07-09T09:35:37.435Z,98846.45
2018-07-09T09:38:09.767Z,98831.31
2018-07-09T09:40:44.488Z,98844.06
2018-07-09T09:43:17.075Z,98839.35
2018-07-09T09:45:50.600Z,98842.84
2018-07-09T09:48:23.257Z,98848.03
2018-07-09T09:50:54.894Z,98856.27
2018-07-09T09:53:28.538Z,98848.23
2018-07-09T09:56:01.150Z,98852.64
2018-07-09T09:58:33.338Z,98856.14
2018-07-09T10:01:06.910Z,98849.35
2018-07-09T10:03:38.716Z,98846.74
2018-07-09T10:06:11.948Z,98858.35
2018-07-09T10:08:44.564Z,98844.98
2018-07-09T10:11:16.413Z,98846.39
2018-07-09T10:13:48.272Z,98846.75
2018-07-09T10:16:21.100Z,98846.87
2018-07-09T10:18:54.318Z,98845.58
2018-07-09T10:21:32.173Z,98842.19
2018-07-09T10:24:06.969Z,98848.44
2018-07-09T10:26:45.820Z,98834.13
2018-07-09T10:29:17.640Z,98831.95
2018-07-09T10:31:50.262Z,98835.88
2018-07-09T10:34:22.170Z,98828.60
2018-07-09T10:36:55.856Z,98830.10
2018-07-09T10:39:27.069Z,98824.91
2018-07-09T10:41:58.410Z,98825.53
2018-07-09T10:44:28.911Z,98825.26
2018-07-09T10:47:00.530Z,98823.64
2018-07-09T10:49:32.501Z,98824.27
2018-07-09T10:52:04.208Z,98819.51
2018-07-09T10:54:36.018Z,98821.11
2018-07-09T10:57:14.386Z,98813.45
2018-07-09T10:59:45.396Z,98802.38
2018-07-09T11:02:18.014Z,98801.83
2018-07-09T11:04:49.866Z,98801.78
2018-07-09T11:07:20.762Z,98807.84
2018-07-09T11:09:52.057Z,98806.31
2018-07-09T11:12:27.544Z,98800.52
2018-07-09T11:14:58.549Z,98796.47
2018-07-09T11:17:30.662Z,98796.05
2018-07-09T11:20:02.142Z,98774.91
2018-07-09T11:22:45.295Z,98789.97
2018-07-09T11:25:40.488Z,98785.45
2018-07-09T11:28:11.566Z,98786.94
2018-07-09T11:30:42.972Z,98784.38
2018-07-09T11:33:14.281Z,98783.73
2018-07-09T11:35:47.040Z,98792.62
2018-07-09T11:38:18.995Z,98773.45
2018-07-09T11:40:50.798Z,98772.06
2018-07-09T11:43:24.527Z,98774.05
2018-07-09T11:45:55.332Z,98768.38
2018-07-09T11:48:27.097Z,98768.89
2018-07-09T11:51:02.039Z,98766.77
2018-07-09T11:53:33.312Z,98758.44
2018-07-09T11:56:04.953Z,98762.59
2018-07-09T11:58:37.792Z,98757.96
2018-07-09T12:01:09.162Z,98754.21
2018-07-09T12:03:42.632Z,98749.81
2018-07-09T12:06:17.075Z,98743.34
2018-07-09T12:08:49.573Z,98741.15
2018-07-09T12:11:22.097Z,98741.20
2018-07-09T12:13:54.499Z,98735.51
2018-07-09T12:16:27.151Z,98736.34
2018-07-09T12:18:59.204Z,98740.64
2018-07-09T12:21:31.424Z,98743.51
2018-07-09T12:24:03.182Z,98736.33
2018-07-09T12:26:34.053Z,98735.22
2018-07-09T12:29:05.979Z,98736.27
2018-07-09T12:31:38.333Z,98734.64
2018-07-09T12:34:10.955Z,98726.72
2018-07-09T12:36:49.870Z,98727.48
2018-07-09T12:39:22.073Z,98725.77
2018-07-09T12:41:53.613Z,98728.08
2018-07-09T12:44:25.350Z,98732.98
2018-07-09T12:46:56.501Z,98721.70
2018-07-09T12:49:29.969Z,98723.75
2018-07-09T12:52:01.687Z,98715.84
2018-07-09T12:54:33.387Z,98719.65
2018-07-09T12:57:04.347Z,98709.84
2018-07-09T12:59:38.197Z,98721.39
2018-07-09T13:02:09.583Z,98714.20
2018-07-09T13:04:43.387Z,98709.91
2018-07-09T13:07:15.495Z,98720.70
2018-07-09T13:09:47.530Z,98720.26
2018-07-09T13:12:28.235Z,98719.49
2018-07-09T13:15:01.861Z,98710.59
2018-07-09T13:17:35.995Z,98718.32
2018-07-09T13:20:09.185Z,98715.59
2018-07-09T13:22:41.815Z,98716.32
2018-07-09T13:25:14.194Z,98715.20
2018-07-09T13:27:47.779Z,98711.81
2018-07-09T13:30:21.126Z,98719.27
2018-07-09T13:32:52.926Z,98705.00
2018-07-09T13:35:25.124Z,98707.22
2018-07-09T13:37:57.637Z,98703.00
2018-07-09T13:40:29.883Z,98706.17
2018-07-09T13:43:01.498Z,98701.40
2018-07-09T13:45:34.590Z,98698.76
2018-07-09T13:48:06.379Z,98701.66
2018-07-09T13:50:37.901Z,98697.11
2018-07-09T13:53:08.899Z,98696.08
2018-07-09T13:55:40.169Z,98689.41
2018-07-09T13:58:11.958Z,98695.02
2018-07-09T14:00:44.289Z,98694.09
2018-07-09T14:03:15.745Z,98689.48
2018-07-09T14:05:47.960Z,98692.46
2018-07-09T14:08:18.987Z,98695.33
2018-07-09T14:10:50.057Z,98688.52
2018-07-09T14:13:21.447Z,98684.86
2018-07-09T14:15:53.396Z,98677.52
2018-07-09T14:18:26.474Z,98672.80
2018-07-09T14:20:57.974Z,98674.47
2018-07-09T14:23:29.297Z,98676.63
2018-07-09T14:26:02.079Z,98673.09
2018-07-09T14:28:33.960Z,98671.45
2018-07-09T14:31:05.891Z,98670.36
2018-07-09T14:33:38.534Z,98662.83
2018-07-09T14:36:10.085Z,98663.39
2018-07-09T14:38:42.751Z,98663.37
2018-07-09T14:41:14.331Z,98656.52
2018-07-09T14:43:45.378Z,98654.64
2018-07-09T14:46:16.044Z,98655.03
2018-07-09T14:48:46.973Z,98660.19
2018-07-09T14:51:18.676Z,98655.87
2018-07-09T14:53:49.290Z,98653.75
2018-07-09T14:56:19.867Z,98646.88
2018-07-09T14:58:51.278Z,98648.52
2018-07-09T15:01:22.013Z,98650.00
2018-07-09T15:03:53.290Z,98644.30
2018-07-09T15:06:24.825Z,98643.34
2018-07-09T15:08:56.311Z,98641.36
2018-07-09T15:11:26.723Z,98638.30
2018-07-09T15:28:21.394Z,98633.86
2018-07-09T15:30:52.998Z,98633.57
2018-07-09T15:33:23.703Z,98624.27
2018-07-09T15:35:54.524Z,98626.49
2018-07-09T15:38:25.566Z,98627.56
2018-07-09T15:40:57.965Z,98624.07
2018-07-09T15:43:45.191Z,98620.00
2018-07-09T15:46:17.837Z,98618.33
2018-07-09T15:48:49.431Z,98616.70
2018-07-09T15:51:20.764Z,98612.86
2018-07-09T15:53:53.498Z,98623.89
2018-07-09T15:56:25.940Z,98621.74
2018-07-09T15:58:57.066Z,98611.95
2018-07-09T16:01:28.078Z,98617.36
2018-07-09T16:03:59.136Z,98607.51
2018-07-09T16:06:33.212Z,98610.12
2018-07-09T16:09:06.328Z,98614.77
2018-07-09T16:11:39.616Z,98612.07
2018-07-09T16:14:10.750Z,98608.45
2018-07-09T16:16:41.457Z,98604.07
2018-07-09T16:19:12.263Z,98608.25
2018-07-09T16:21:42.801Z,98606.85
2018-07-09T16:24:13.620Z,98613.02
2018-07-09T16:26:44.264Z,98608.56
2018-07-09T16:29:15.822Z,98609.44
2018-07-09T16:31:46.636Z,98604.42
2018-07-09T16:34:16.987Z,98598.41
2018-07-09T16:36:49.593Z,98600.25
2018-07-09T16:39:20.634Z,98600.25
2018-07-09T16:41:51.044Z,98606.84
2018-07-09T16:44:22.534Z,98599.08
2018-07-09T16:46:53.678Z,98598.81
2018-07-09T16:49:25.388Z,98592.58
2018-07-09T16:51:56.492Z,98587.48
2018-07-09T16:54:27.075Z,98587.30
2018-07-09T16:56:57.448Z,98589.13
2018-07-09T16:59:27.506Z,98588.58
2018-07-09T17:01:58.331Z,98588.97
2018-07-09T17:04:29.082Z,98595.27
2018-07-09T17:07:00.606Z,98586.20
2018-07-09T17:09:32.790Z,98588.34
2018-07-09T17:12:04.077Z,98585.89
2018-07-09T17:14:36.033Z,98591.02
2018-07-09T17:17:07.492Z,98585.77
2018-07-09T17:19:39.113Z,98586.34
2018-07-09T17:22:09.937Z,98594.95
2018-07-09T17:24:42.257Z,98591.16
2018-07-09T17:27:15.130Z,98595.14
2018-07-09T17:29:46.950Z,98596.77
2018-07-09T17:32:18.039Z,98594.31
2018-07-09T17:34:49.216Z,98593.87
2018-07-09T17:37:20.959Z,98602.66
2018-07-09T17:39:51.988Z,98605.17
2018-07-09T17:44:53.278Z,98609.91
2018-07-09T17:47:23.856Z,98611.89
2018-07-09T17:49:54.863Z,98606.98
2018-07-09T17:52:25.317Z,98608.37
2018-07-09T17:54:55.845Z,98604.59
2018-07-09T17:57:26.983Z,98605.34
2018-07-09T17:59:58.120Z,98605.13
2018-07-09T18:02:29.716Z,98607.68
2018-07-09T18:05:00.665Z,98610.09
2018-07-09T18:07:31.476Z,98615.00
2018-07-09T18:10:02.752Z,98618.73
2018-07-09T18:12:33.996Z,98618.16
2018-07-09T18:15:05.448Z,98630.03
2018-07-09T18:17:39.376Z,98623.92
2018-07-09T18:20:11.023Z,98626.33
2018-07-09T18:22:41.395Z,98630.44
2018-07-09T18:25:12.770Z,98628.25
2018-07-09T18:27:45.038Z,98623.70
2018-07-09T18:30:18.705Z,98629.73
2018-07-09T18:32:50.829Z,98627.87
2018-07-09T18:35:23.361Z,98624.88
2018-07-09T18:37:55.098Z,98625.76
2018-07-09T18:40:27.130Z,98621.39
2018-07-09T18:42:58.760Z,98630.32
2018-07-09T18:45:30.067Z,98624.13
2018-07-09T18:48:02.490Z,98628.90
2018-07-09T18:50:36.216Z,98630.02
2018-07-09T18:53:08.290Z,98630.73
2018-07-09T18:55:39.875Z,98626.98
2018-07-09T18:58:12.369Z,98633.15
2018-07-09T19:00:44.307Z,98633.77
2018-07-09T19:03:17.310Z,98632.95
2018-07-09T19:07:06.685Z,98649.98
2018-07-09T19:09:39.372Z,98648.92
2018-07-09T19:12:12.187Z,98653.02
2018-07-09T19:14:46.119Z,98653.83
2018-07-09T19:18:11.751Z,98654.00
2018-07-09T19:21:36.391Z,98658.78
2018-07-09T19:24:07.913Z,98669.39
2018-07-09T19:26:36.927Z,98668.56
2018-07-09T19:29:05.518Z,98677.41
2018-07-09T19:31:35.367Z,98675.03
2018-07-09T19:34:04.246Z,98682.37
2018-07-09T19:36:33.043Z,98690.54
2018-07-09T19:39:01.756Z,98686.44
2018-07-09T19:41:30.640Z,98695.30
2018-07-09T19:44:00.202Z,98702.86
2018-07-09T19:46:29.318Z,98705.73
2018-07-09T19:48:58.618Z,98703.90
2018-07-09T19:51:28.659Z,98713.47
2018-07-09T19:53:57.559Z,98712.03
2018-07-09T19:56:26.639Z,98711.33
2018-07-09T19:58:55.481Z,98707.56
2018-07-09T20:01:25.876Z,98710.84
2018-07-09T20:03:57.740Z,98708.00
2018-07-09T20:06:27.551Z,98710.56
2018-07-09T20:10:02.882Z,98716.84
2018-07-09T20:12:37.193Z,98721.50
2018-07-09T20:15:11.065Z,98722.50
2018-07-09T20:17:44.273Z,98721.80
2018-07-09T20:20:13.496Z,98721.37
2018-07-09T20:22:48.901Z,98727.66
2018-07-09T20:25:17.656Z,98728.35
2018-07-09T20:27:46.412Z,98729.74
2018-07-09T20:30:14.983Z,98729.14
2018-07-09T20:32:43.802Z,98728.55
2018-07-09T20:35:12.390Z,98734.06
2018-07-09T20:37:41.158Z,98737.95
2018-07-09T20:40:11.025Z,98737.34
2018-07-09T20:42:40.273Z,98747.72
2018-07-09T20:45:08.956Z,98748.48
2018-07-09T20:47:37.663Z,98743.55
2018-07-09T20:50:07.205Z,98745.75
2018-07-09T20:52:35.875Z,98749.58
2018-07-09T20:55:04.766Z,98751.44
2018-07-09T20:57:33.423Z,98754.66
2018-07-09T21:00:02.527Z,98749.91
2018-07-09T21:02:31.321Z,98750.95
2018-07-09T21:05:00.180Z,98751.20
2018-07-09T21:07:28.820Z,98751.06
2018-07-09T21:09:57.356Z,98747.55
2018-07-09T21:12:27.550Z,98756.04
2018-07-09T21:14:56.469Z,98756.39
2018-07-09T21:17:25.073Z,98753.11
2018-07-09T21:19:53.343Z,98760.09
2018-07-09T21:22:21.644Z,98763.23
2018-07-09T21:24:49.967Z,98762.92
2018-07-09T21:27:18.286Z,98763.91
2018-07-09T21:29:46.555Z,98759.56
2018-07-09T21:32:14.806Z,98758.72
2018-07-09T21:34:43.190Z,98759.41
2018-07-09T21:37:11.776Z,98763.22
2018-07-09T21:39:40.550Z,98771.02
2018-07-09T21:42:08.886Z,98763.89
2018-07-09T21:44:37.127Z,98766.84
2018-07-09T21:47:05.412Z,98769.86
2018-07-09T21:49:34.234Z,98763.89
2018-07-09T21:52:03.251Z,98768.02
2018-07-09T21:54:32.694Z,98764.22
2018-07-09T21:57:01.023Z,98776.82
2018-07-09T21:59:29.346Z,98772.01
2018-07-09T22:01:57.707Z,98771.69
2018-07-09T22:04:25.960Z,98768.89
2018-07-09T22:06:54.414Z,98770.05
2018-07-09T22:09:22.704Z,98771.02
2018-07-09T22:33:28.863Z,98757.59
2018-07-09T22:35:59.271Z,98757.06
2018-07-09T22:38:29.344Z,98759.22
2018-07-09T22:40:59.950Z,98758.23
2018-07-09T22:44:43.249Z,98757.56
2018-07-09T22:47:13.953Z,98758.84
2018-07-09T22:49:44.746Z,98759.84
2018-07-09T22:52:15.403Z,98766.64
2018-07-09T22:54:47.177Z,98770.27
2018-07-09T22:57:17.610Z,98760.80
2018-07-09T22:59:47.836Z,98763.79
2018-07-09T23:02:18.353Z,98758.49
2018-07-09T23:04:49.572Z,98759.80
2018-07-09T23:07:20.252Z,98757.44
2018-07-09T23:10:35.550Z,98759.09
2018-07-09T23:13:31.130Z,98753.41
2018-07-09T23:16:49.485Z,98757.64
2018-07-09T23:22:18.978Z,98754.09
2018-07-09T23:24:47.113Z,98750.10
2018-07-09T23:27:15.646Z,98747.77
2018-07-09T23:29:43.754Z,98745.23
2018-07-09T23:32:11.952Z,98741.07
2018-07-09T23:34:40.179Z,98733.44
2018-07-09T23:37:08.359Z,98742.20
2018-07-09T23:39:36.538Z,98739.38
2018-07-09T23:42:04.757Z,98743.31
2018-07-09T23:44:33.005Z,98742.83
2018-07-09T23:47:01.594Z,98734.70
2018-07-09T23:49:29.751Z,98740.23
2018-07-09T23:51:58.911Z,98749.09
2018-07-09T23:54:27.089Z,98750.84
2018-07-09T23:58:13.213Z,98756.19
